Terminal Aerodrome Forecast
Issued by NWS Duluth, MN

Home | Current Version | Previous Version | Text Only | Print | Product List | Glossary On
Versions: 1 2 3 4 5 6 7 8 9 10 11 12 13 14 15 16 17 18 19 20 21 22 23 24 25 26 27 28 29 30 31 32 33 34 35 36 37 38
000
FTUS43 KDLH 191700
TAFDLH
TAF
KDLH 191731Z 1918/2018 21014G24KT P6SM VCSH BKN017 OVC110
      TEMPO 1919/1923 5SM -RA BR BKN020 OVC100
     FM192300 21010KT 5SM BR SCT006 BKN015
     FM200100 20007KT 6SM BR SCT015 BKN100
      TEMPO 2004/2007 4SM -TSRA BR OVC015CB
     FM200700 25005KT 5SM BR OVC012
     FM201100 29011KT P6SM BKN015
     FM201600 28013KT P6SM SCT025=

USA.gov is the U.S. government's official web portal to all federal, state and local government web resources and services.